Time;durP1;ratioP1;P1;durP2;ratioP2;P2;SDS_P1;SDS_P2;PMS_P1;PMS_P2;Temp;Humidity;BMP_temperature;BMP_pressure;BME280_temperature;BME280_humidity;BME280_pressure;Samples;Min_cycle;Max_cycle;Signal;HPM_P1;HPM_P2
2022/07/24 05:01:56;;;;;;;13.93;12.15;;;20.80;99.90;;;;;;5614162;23;20055;-78
2022/07/24 05:04:22;;;;;;;13.32;11.85;;;20.90;99.90;;;;;;4950227;29;20047;-75
2022/07/24 05:06:48;;;;;;;15.00;10.88;;;20.90;99.90;;;;;;4961073;29;20041;-76
2022/07/24 05:09:14;;;;;;;14.05;11.90;;;21.10;99.90;;;;;;4953284;29;20032;-76
2022/07/24 05:11:40;;;;;;;12.57;10.90;;;21.10;99.90;;;;;;4948299;29;20031;-76
2022/07/24 05:14:06;;;;;;;13.52;11.95;;;21.20;99.90;;;;;;4965338;29;20046;-75
2022/07/24 05:16:31;;;;;;;17.27;11.48;;;21.30;99.90;;;;;;4946933;29;20221;-76
2022/07/24 05:18:57;;;;;;;13.30;11.85;;;21.30;99.90;;;;;;4935127;29;20032;-77
2022/07/24 05:21:23;;;;;;;13.13;11.38;;;21.40;99.90;;;;;;4936543;29;20028;-76
2022/07/24 05:23:49;;;;;;;13.35;11.10;;;21.30;99.90;;;;;;4928702;29;20040;-76
2022/07/24 05:26:15;;;;;;;13.93;10.15;;;21.30;99.90;;;;;;4945199;29;20336;-78
2022/07/24 05:28:41;;;;;;;13.35;11.63;;;21.40;99.90;;;;;;4945347;29;20024;-76
2022/07/24 05:31:08;;;;;;;13.27;11.23;;;21.50;99.90;;;;;;4944997;29;20051;-76
2022/07/24 05:33:34;;;;;;;13.13;11.70;;;21.60;99.90;;;;;;4945169;29;20242;-76
2022/07/24 05:36:00;;;;;;;13.30;11.55;;;21.60;99.90;;;;;;4954916;29;20102;-76
2022/07/24 05:38:26;;;;;;;13.38;11.15;;;21.70;99.90;;;;;;4964317;29;20035;-76
2022/07/24 05:40:51;;;;;;;15.25;11.57;;;21.70;99.90;;;;;;4964765;29;20098;-76
2022/07/24 05:43:17;;;;;;;14.05;11.50;;;21.80;99.90;;;;;;4964264;29;20039;-77
2022/07/24 05:45:43;;;;;;;13.32;11.18;;;21.80;99.90;;;;;;4964033;28;20236;-76
2022/07/24 05:48:09;;;;;;;12.60;11.30;;;21.90;99.90;;;;;;4965051;28;20035;-76
2022/07/24 05:50:35;;;;;;;15.02;11.02;;;21.90;99.90;;;;;;4963805;29;20028;-76
2022/07/24 05:53:01;;;;;;;12.68;11.07;;;22.00;99.70;;;;;;4964429;29;20055;-76
2022/07/24 05:55:27;;;;;;;12.68;10.35;;;22.10;99.40;;;;;;4946913;29;20027;-76
2022/07/24 05:57:54;;;;;;;12.48;11.10;;;22.20;98.80;;;;;;4954180;29;20028;-76
2022/07/24 06:00:20;;;;;;;14.15;11.25;;;22.40;98.30;;;;;;4927174;29;20024;-77
2022/07/24 06:02:46;;;;;;;12.95;11.10;;;22.50;97.90;;;;;;4927498;29;20075;-76
2022/07/24 06:05:13;;;;;;;16.63;11.65;;;22.50;97.70;;;;;;4944779;29;20032;-76
2022/07/24 06:07:39;;;;;;;13.63;10.35;;;22.60;97.20;;;;;;4944470;29;20043;-76
2022/07/24 06:10:05;;;;;;;13.40;10.30;;;22.70;96.80;;;;;;4944880;29;20027;-76
2022/07/24 06:12:31;;;;;;;11.70;9.88;;;22.90;96.30;;;;;;4927499;29;20035;-76
2022/07/24 06:14:57;;;;;;;12.80;10.10;;;23.00;96.20;;;;;;4945215;29;20401;-76
2022/07/24 06:17:22;;;;;;;13.50;10.85;;;23.10;95.50;;;;;;4943978;29;20043;-76
2022/07/24 06:19:48;;;;;;;13.32;10.85;;;23.20;95.10;;;;;;4945118;29;20067;-75
2022/07/24 06:22:14;;;;;;;11.48;10.23;;;23.30;95.10;;;;;;4944569;29;20027;-76
2022/07/24 06:24:40;;;;;;;11.55;10.20;;;23.40;94.80;;;;;;4944228;29;20103;-76
2022/07/24 06:27:05;;;;;;;10.95;9.85;;;23.60;94.10;;;;;;4944597;29;20036;-76
2022/07/24 06:29:32;;;;;;;13.10;10.40;;;23.60;94.00;;;;;;4944580;29;20028;-76
2022/07/24 06:31:57;;;;;;;12.57;10.70;;;23.70;93.90;;;;;;4939036;29;20043;-76
2022/07/24 06:34:26;;;;;;;11.43;10.20;;;23.80;93.70;;;;;;4944230;29;20046;-77
2022/07/24 06:36:52;;;;;;;;;;;23.90;93.40;;;;;;4945414;29;20032;-76
2022/07/24 06:39:18;;;;;;;11.82;10.63;;;23.90;93.30;;;;;;4943549;29;19907;-76
2022/07/24 06:41:44;;;;;;;11.52;10.23;;;24.00;93.30;;;;;;4944166;29;20036;-79
2022/07/24 06:44:23;;;;;;;11.02;9.38;;;24.00;93.20;;;;;;4958958;29;20036;-80
2022/07/24 06:46:50;;;;;;;12.45;9.68;;;24.10;92.70;;;;;;4962066;29;20165;-78
2022/07/24 06:49:15;;;;;;;13.13;10.50;;;24.30;92.50;;;;;;4963409;29;20047;-79
2022/07/24 06:51:41;;;;;;;11.70;10.50;;;24.40;92.10;;;;;;4959226;29;20266;-77
2022/07/24 06:54:07;;;;;;;11.68;9.63;;;24.50;91.90;;;;;;4963792;29;20038;-81
2022/07/24 06:56:35;;;;;;;12.18;10.38;;;24.60;91.60;;;;;;4927678;29;20036;-79
2022/07/24 06:59:01;;;;;;;;;;;24.70;91.50;;;;;;4944615;29;20075;-80
2022/07/24 07:01:27;;;;;;;11.85;10.48;;;24.70;91.20;;;;;;4934209;29;19915;-80
2022/07/24 07:03:53;;;;;;;10.77;9.68;;;24.80;91.10;;;;;;4929114;29;20051;-77
2022/07/24 07:06:19;;;;;;;10.07;9.00;;;24.80;90.90;;;;;;4929361;29;20103;-79
2022/07/24 07:08:45;;;;;;;12.13;9.52;;;24.90;90.80;;;;;;4929324;29;20020;-79
2022/07/24 07:11:11;;;;;;;12.45;9.52;;;24.90;90.50;;;;;;4964839;29;20034;-78
2022/07/24 07:13:38;;;;;;;13.10;10.07;;;24.90;90.40;;;;;;4966744;29;20051;-77
2022/07/24 07:16:04;;;;;;;10.23;9.13;;;25.00;90.40;;;;;;4966396;29;20292;-78
2022/07/24 07:18:30;;;;;;;11.85;9.75;;;25.10;90.00;;;;;;4967017;29;20043;-79
2022/07/24 07:20:59;;;;;;;18.10;10.38;;;25.10;89.90;;;;;;4967057;29;20135;-79
2022/07/24 07:23:28;;;;;;;14.40;9.73;;;25.20;89.40;;;;;;4946574;29;20031;-78
2022/07/24 07:25:54;;;;;;;12.60;10.05;;;25.30;88.90;;;;;;4967195;29;20059;-78
2022/07/24 07:28:21;;;;;;;13.73;9.48;;;25.60;88.10;;;;;;4967935;29;20039;-78
2022/07/24 07:30:50;;;;;;;11.82;8.95;;;25.80;86.80;;;;;;4926691;29;20040;-78
2022/07/24 07:33:15;;;;;;;9.10;8.00;;;25.90;86.00;;;;;;4930757;29;20054;-77
2022/07/24 07:35:41;;;;;;;10.35;8.50;;;26.10;85.90;;;;;;4947039;29;20043;-77
2022/07/24 07:38:07;;;;;;;13.48;7.85;;;26.10;84.60;;;;;;4950265;29;20079;-78
2022/07/24 07:40:33;;;;;;;9.18;8.18;;;26.30;83.60;;;;;;4937029;29;20040;-77
2022/07/24 07:42:58;;;;;;;8.70;7.78;;;26.30;83.20;;;;;;4938789;29;20079;-75
2022/07/24 07:45:24;;;;;;;8.80;7.65;;;26.40;82.60;;;;;;4950754;29;20070;-74
2022/07/24 07:47:50;;;;;;;9.57;7.85;;;26.50;82.60;;;;;;4950206;29;20099;-76
2022/07/24 07:50:15;;;;;;;9.68;7.32;;;26.40;82.20;;;;;;4923850;29;20028;-75
2022/07/24 07:52:41;;;;;;;7.57;6.53;;;26.40;80.60;;;;;;4944398;29;20032;-76
2022/07/24 07:55:07;;;;;;;8.05;6.40;;;26.40;79.60;;;;;;4951260;29;20019;-75
2022/07/24 07:57:33;;;;;;;8.18;6.57;;;26.40;78.20;;;;;;4942064;29;20090;-75
2022/07/24 07:59:59;;;;;;;8.73;6.35;;;26.40;77.00;;;;;;4928463;29;20211;-75
2022/07/24 08:02:25;;;;;;;7.10;6.22;;;26.50;77.50;;;;;;4926877;29;20126;-76
2022/07/24 08:04:50;;;;;;;9.10;6.20;;;26.60;77.20;;;;;;4928373;29;20039;-75
2022/07/24 08:07:16;;;;;;;7.22;6.53;;;26.70;77.10;;;;;;4928313;29;20051;-76
2022/07/24 08:09:42;;;;;;;8.55;6.20;;;27.00;76.30;;;;;;4933560;29;20034;-77
2022/07/24 08:12:08;;;;;;;6.28;5.50;;;27.00;74.70;;;;;;4946584;29;20028;-76
2022/07/24 08:14:34;;;;;;;7.60;5.50;;;27.20;74.30;;;;;;4946803;29;20036;-76
2022/07/24 08:16:59;;;;;;;6.15;5.47;;;27.40;73.00;;;;;;4956958;29;20050;-76
2022/07/24 08:19:25;;;;;;;6.68;5.88;;;27.50;72.80;;;;;;4965657;29;20256;-77
2022/07/24 08:21:51;;;;;;;7.43;6.10;;;27.50;73.30;;;;;;4966018;29;20023;-76
2022/07/24 08:24:20;;;;;;;7.90;6.13;;;27.50;72.90;;;;;;4948837;29;20046;-78
2022/07/24 08:26:49;;;;;;;7.75;5.85;;;27.40;73.00;;;;;;4965524;29;20401;-75
2022/07/24 08:29:16;;;;;;;7.05;6.13;;;27.40;73.60;;;;;;4965755;29;20039;-75
2022/07/24 08:31:42;;;;;;;8.70;6.70;;;27.50;73.10;;;;;;4963116;28;20046;-75
2022/07/24 08:34:08;;;;;;;8.93;5.70;;;27.50;72.70;;;;;;4931336;29;20074;-75
2022/07/24 08:36:34;;;;;;;7.60;5.82;;;27.60;72.20;;;;;;4964068;29;20031;-75
2022/07/24 08:39:00;;;;;;;6.95;5.30;;;27.80;72.10;;;;;;4964660;29;20078;-76
2022/07/24 08:41:32;;;;;;;7.82;5.47;;;28.00;71.20;;;;;;4964606;29;20107;-76
2022/07/24 08:43:59;;;;;;;6.30;5.28;;;28.00;69.90;;;;;;4964408;29;20035;-76
2022/07/24 08:46:26;;;;;;;6.35;5.65;;;28.00;70.00;;;;;;4963934;28;20070;-75
2022/07/24 08:48:53;;;;;;;7.28;5.50;;;28.30;70.50;;;;;;4964462;29;20015;-76
2022/07/24 08:51:19;;;;;;;6.53;5.72;;;28.30;70.30;;;;;;4964475;29;20027;-75
2022/07/24 08:53:47;;;;;;;9.70;5.80;;;28.30;70.80;;;;;;4963841;29;20316;-75
2022/07/24 08:56:13;;;;;;;6.80;5.70;;;28.50;70.70;;;;;;4964528;29;20023;-76
2022/07/24 08:58:40;;;;;;;6.45;5.82;;;28.50;69.60;;;;;;4963512;29;20130;-77
2022/07/24 09:01:07;;;;;;;7.20;6.00;;;28.50;69.80;;;;;;4963503;29;20043;-76
2022/07/24 09:03:41;;;;;;;8.30;6.00;;;28.50;71.20;;;;;;4963565;29;20306;-72
2022/07/24 09:06:09;;;;;;;7.60;5.90;;;28.70;71.20;;;;;;4964444;29;20325;-73
2022/07/24 09:08:35;;;;;;;9.70;6.13;;;28.90;70.10;;;;;;4963620;29;20035;-71
2022/07/24 09:11:05;;;;;;;6.07;5.32;;;28.90;69.10;;;;;;4964188;29;20434;-73
2022/07/24 09:16:23;;;;;;;7.53;5.80;;;29.10;69.60;;;;;;4963570;28;20063;-76
2022/07/24 09:19:04;;;;;;;6.47;5.13;;;29.30;69.10;;;;;;4963572;29;20043;-72
2022/07/24 09:21:37;;;;;;;6.70;5.60;;;29.60;68.50;;;;;;4963599;29;20053;-71
2022/07/24 09:24:17;;;;;;;8.35;5.95;;;29.80;68.00;;;;;;4962506;28;20039;-70
2022/07/24 09:26:56;;;;;;;7.40;5.55;;;30.10;67.30;;;;;;4963104;29;20031;-73
2022/07/24 09:29:24;;;;;;;6.97;5.85;;;30.30;66.70;;;;;;4963599;29;20042;-72
2022/07/24 09:32:01;;;;;;;8.30;5.78;;;30.40;65.70;;;;;;4962343;28;20051;-79
2022/07/24 09:34:36;;;;;;;7.60;5.78;;;30.40;65.60;;;;;;4944425;29;20074;-72
2022/07/24 09:37:05;;;;;;;6.03;5.25;;;30.60;65.10;;;;;;4944342;29;20380;-71
2022/07/24 09:39:33;;;;;;;9.32;6.00;;;30.60;65.70;;;;;;4948181;29;20361;-71
2022/07/24 09:42:00;;;;;;;6.57;5.30;;;30.90;65.20;;;;;;4963542;29;20391;-75
2022/07/24 09:44:28;;;;;;;7.10;6.00;;;31.10;64.70;;;;;;4963330;29;20041;-70
2022/07/24 09:46:55;;;;;;;8.80;5.95;;;31.30;64.40;;;;;;4962435;28;20110;-71
2022/07/24 09:49:21;;;;;;;5.90;5.13;;;31.40;63.50;;;;;;4963401;29;20035;-71
2022/07/24 09:52:05;;;;;;;8.23;5.75;;;31.60;62.60;;;;;;4945977;29;20059;-72
2022/07/24 09:54:36;;;;;;;7.10;5.40;;;31.40;62.60;;;;;;4962788;29;20044;-75
2022/07/24 09:57:25;;;;;;;6.55;5.60;;;31.20;62.20;;;;;;4963426;29;20208;-72
2022/07/24 09:59:58;;;;;;;7.38;5.43;;;30.90;63.00;;;;;;4961062;28;20359;-73
2022/07/24 10:02:27;;;;;;;6.07;5.47;;;30.90;62.50;;;;;;4944921;29;20055;-70
2022/07/24 10:04:54;;;;;;;6.45;5.20;;;30.70;62.70;;;;;;4962681;29;20035;-70
2022/07/24 10:07:21;;;;;;;6.50;5.88;;;30.60;62.70;;;;;;4963101;29;20055;-72
2022/07/24 10:09:50;;;;;;;6.82;5.55;;;30.60;63.00;;;;;;4961985;29;20170;-70
2022/07/24 10:12:29;;;;;;;7.32;5.20;;;30.60;63.20;;;;;;4962694;29;20034;-69
2022/07/24 10:14:57;;;;;;;6.70;5.90;;;30.60;63.10;;;;;;4962383;29;20178;-70
2022/07/24 10:17:34;;;;;;;4.03;3.63;;;30.60;63.20;;;;;;4962275;29;20050;-71
2022/07/24 10:20:04;;;;;;;7.00;5.57;;;30.50;63.40;;;;;;4963050;29;20035;-69
2022/07/24 10:22:44;;;;;;;8.32;5.90;;;30.50;63.60;;;;;;4963070;29;20019;-71
2022/07/24 10:25:16;;;;;;;6.90;5.90;;;30.40;64.30;;;;;;4963019;29;20039;-74
2022/07/24 10:27:46;;;;;;;8.00;5.63;;;30.10;63.70;;;;;;4962664;29;20046;-71
2022/07/24 10:30:12;;;;;;;8.00;6.03;;;30.00;64.10;;;;;;4962011;28;20027;-71
2022/07/24 10:32:38;;;;;;;8.25;5.90;;;29.90;64.30;;;;;;4962368;29;20054;-71
2022/07/24 10:35:07;;;;;;;6.32;5.72;;;29.90;64.10;;;;;;4963263;28;20039;-70
2022/07/24 10:37:51;;;;;;;7.63;6.18;;;29.90;64.00;;;;;;4966621;29;20320;-72
2022/07/24 10:40:44;;;;;;;6.18;5.55;;;29.90;64.70;;;;;;4966874;29;20035;-71
2022/07/24 10:43:18;;;;;;;7.05;5.47;;;30.10;64.20;;;;;;4959144;29;20343;-70
2022/07/24 10:45:53;;;;;;;7.57;6.30;;;30.40;63.50;;;;;;4965587;28;20054;-72
2022/07/24 10:48:25;;;;;;;8.00;6.43;;;30.70;63.10;;;;;;4947475;29;20036;-72
2022/07/24 10:51:16;;;;;;;7.95;5.93;;;30.80;63.00;;;;;;4946891;29;20043;-71
2022/07/24 10:53:48;;;;;;;8.07;5.80;;;31.20;63.20;;;;;;4932485;29;20035;-72
2022/07/24 10:56:28;;;;;;;6.60;5.53;;;31.40;62.40;;;;;;4965811;29;20218;-70
2022/07/24 10:59:07;;;;;;;7.13;5.40;;;31.70;62.20;;;;;;4964044;29;20077;-71
2022/07/24 11:01:44;;;;;;;6.07;5.15;;;32.10;61.40;;;;;;4965372;28;20043;-71
2022/07/24 11:04:19;;;;;;;6.90;5.80;;;32.30;60.50;;;;;;4966580;29;20268;-71
2022/07/24 11:06:46;;;;;;;8.63;5.50;;;32.30;60.70;;;;;;4965880;29;20070;-69
2022/07/24 11:09:12;;;;;;;6.75;5.82;;;32.40;60.60;;;;;;4965905;29;20341;-71
2022/07/24 11:12:03;;;;;;;6.25;5.40;;;32.40;60.20;;;;;;4965664;29;20043;-70
2022/07/24 11:14:40;;;;;;;8.68;5.53;;;32.40;60.50;;;;;;4966131;29;20035;-71
2022/07/24 11:17:43;;;;;;;6.78;5.53;;;32.40;59.90;;;;;;4965615;28;20232;-70
2022/07/24 11:20:14;;;;;;;7.30;5.65;;;32.30;59.80;;;;;;4906762;29;20064;-70
2022/07/24 11:22:52;;;;;;;5.70;5.10;;;32.50;59.60;;;;;;4955835;29;20050;-74
2022/07/24 11:25:21;;;;;;;6.50;5.07;;;32.60;59.30;;;;;;4966007;29;20106;-70
2022/07/24 11:28:08;;;;;;;6.13;5.05;;;32.70;58.90;;;;;;4965527;29;20031;-72
2022/07/24 11:30:42;;;;;;;6.80;5.53;;;33.20;58.10;;;;;;4964683;28;20265;-71
2022/07/24 11:33:09;;;;;;;5.55;4.97;;;33.50;57.70;;;;;;4965473;29;20213;-71
2022/07/24 11:35:37;;;;;;;7.70;5.53;;;33.70;57.90;;;;;;4965955;29;20043;-71
2022/07/24 11:38:05;;;;;;;5.95;5.18;;;33.70;57.60;;;;;;4965786;29;20023;-72
2022/07/24 11:40:32;;;;;;;5.88;5.28;;;33.90;57.40;;;;;;4948511;29;20027;-71
2022/07/24 11:43:12;;;;;;;6.30;5.30;;;33.70;57.50;;;;;;4957349;29;20031;-72
2022/07/24 11:45:39;;;;;;;7.13;5.30;;;34.20;56.50;;;;;;4945146;29;20325;-73
2022/07/24 11:48:05;;;;;;;5.40;4.90;;;34.60;56.50;;;;;;4945373;29;20040;-72
2022/07/24 11:50:32;;;;;;;5.85;4.82;;;35.30;55.90;;;;;;4945418;29;20257;-72
2022/07/24 11:52:58;;;;;;;6.53;4.88;;;36.10;54.20;;;;;;4946334;29;20103;-71
2022/07/24 11:55:24;;;;;;;5.18;4.50;;;36.30;54.00;;;;;;4946801;29;20044;-72
2022/07/24 11:57:53;;;;;;;6.13;5.15;;;36.00;53.80;;;;;;4944793;29;20066;-72
2022/07/24 12:00:21;;;;;;;6.45;5.00;;;36.10;54.20;;;;;;4928634;29;20032;-71
2022/07/24 12:02:49;;;;;;;5.82;4.88;;;35.90;53.80;;;;;;4963263;29;20036;-71
2022/07/24 12:05:31;;;;;;;5.20;4.70;;;35.90;53.60;;;;;;4964825;29;20236;-71
2022/07/24 12:07:59;;;;;;;6.45;5.15;;;35.40;54.30;;;;;;4964635;29;20265;-72
2022/07/24 12:10:25;;;;;;;;;;;35.10;55.00;;;;;;4965631;29;20121;-72
2022/07/24 12:12:53;;;;;;;5.53;4.93;;;34.80;55.50;;;;;;4964773;29;19912;-73
2022/07/24 12:15:24;;;;;;;5.70;5.10;;;34.90;54.80;;;;;;4963224;28;20080;-79
2022/07/24 12:18:10;;;;;;;6.00;5.25;;;34.70;54.70;;;;;;4947644;29;20194;-73
2022/07/24 12:20:37;;;;;;;5.85;4.68;;;34.90;54.90;;;;;;4965107;29;20042;-73
2022/07/24 12:23:09;;;;;;;5.23;4.60;;;36.80;53.70;;;;;;4964522;29;20046;-75
2022/07/24 12:25:36;;;;;;;6.18;4.45;;;39.10;51.60;;;;;;4965014;29;20043;-73
2022/07/24 12:28:05;;;;;;;5.10;4.57;;;40.40;49.40;;;;;;4964738;29;20038;-74
2022/07/24 12:30:33;;;;;;;6.35;4.25;;;40.60;48.40;;;;;;4964188;28;20039;-71
2022/07/24 12:33:03;;;;;;;6.43;4.55;;;41.20;47.80;;;;;;4964280;29;20045;-72
2022/07/24 12:35:34;;;;;;;6.88;3.88;;;41.50;47.50;;;;;;4964814;29;20039;-71
2022/07/24 12:38:03;;;;;;;4.78;4.00;;;42.90;46.80;;;;;;4964439;29;20425;-74
2022/07/24 12:40:35;;;;;;;4.57;4.03;;;43.30;45.80;;;;;;4964490;29;20043;-74
2022/07/24 12:43:10;;;;;;;4.95;3.80;;;44.30;45.40;;;;;;4956009;29;20321;-72
2022/07/24 12:45:37;;;;;;;5.95;4.63;;;45.40;44.80;;;;;;4944747;29;20052;-73
2022/07/24 12:48:18;;;;;;;5.10;3.80;;;46.60;44.10;;;;;;4944916;29;20040;-73
2022/07/24 12:51:03;;;;;;;7.03;4.07;;;46.70;43.10;;;;;;4945260;29;20102;-74
2022/07/24 12:53:31;;;;;;;4.00;3.45;;;47.20;43.00;;;;;;4946917;29;20034;-73
2022/07/24 12:56:06;;;;;;;4.97;4.13;;;47.10;42.40;;;;;;4945738;29;20039;-74
2022/07/24 12:59:08;;;;;;;3.97;3.58;;;46.40;42.80;;;;;;4945539;29;20027;-73
2022/07/24 13:01:49;;;;;;;4.05;3.58;;;47.40;42.70;;;;;;4848651;29;20080;-73
2022/07/24 13:04:22;;;;;;;6.72;4.15;;;46.90;42.30;;;;;;4935422;29;20317;-74
2022/07/24 13:06:51;;;;;;;4.22;3.53;;;47.60;42.50;;;;;;4944467;29;20042;-73
2022/07/24 13:09:18;;;;;;;4.03;3.45;;;47.80;42.30;;;;;;4950169;29;20027;-73
2022/07/24 13:11:45;;;;;;;4.68;3.78;;;45.90;42.40;;;;;;4963123;29;20074;-73
2022/07/24 13:14:13;;;;;;;4.68;3.90;;;46.00;42.80;;;;;;4964020;29;20042;-73
2022/07/24 13:16:41;;;;;;;4.07;3.67;;;46.50;42.40;;;;;;4963197;28;20053;-74
2022/07/24 13:19:10;;;;;;;4.32;3.75;;;47.10;41.70;;;;;;4963086;29;20023;-77
2022/07/24 13:21:37;;;;;;;5.07;4.68;;;46.10;41.60;;;;;;4963706;29;20034;-73
2022/07/24 13:24:04;;;;;;;4.22;3.47;;;47.60;41.80;;;;;;4946143;29;20031;-74
2022/07/24 13:26:30;;;;;;;4.97;3.70;;;48.00;40.60;;;;;;4963805;29;20043;-74
2022/07/24 13:28:57;;;;;;;3.87;3.50;;;48.00;40.90;;;;;;4963630;29;20035;-74
2022/07/24 13:31:23;;;;;;;4.00;3.63;;;48.60;40.30;;;;;;4963333;28;20047;-73
2022/07/24 13:33:49;;;;;;;3.90;3.50;;;48.30;40.10;;;;;;4963280;29;20015;-74
2022/07/24 13:36:15;;;;;;;;;;;48.70;41.10;;;;;;4964106;29;20344;-75
2022/07/24 13:38:41;;;;;;;3.92;3.53;;;49.90;40.30;;;;;;4963768;29;19937;-74
2022/07/24 13:41:07;;;;;;;4.00;3.60;;;49.30;39.80;;;;;;4961947;29;20035;-74
2022/07/24 13:43:33;;;;;;;4.33;3.60;;;48.90;39.80;;;;;;4950901;29;20102;-76
2022/07/24 13:45:59;;;;;;;4.78;3.95;;;46.90;40.60;;;;;;4943297;29;20076;-74
2022/07/24 13:48:25;;;;;;;6.10;3.90;;;46.00;41.50;;;;;;4944412;29;20039;-75
2022/07/24 13:50:51;;;;;;;5.20;4.15;;;46.80;41.40;;;;;;4942847;29;20128;-75
2022/07/24 13:53:17;;;;;;;5.63;3.90;;;47.50;40.90;;;;;;4944561;29;20035;-75
2022/07/24 13:55:42;;;;;;;6.78;4.15;;;48.20;40.40;;;;;;4944293;29;20098;-73
2022/07/24 13:58:08;;;;;;;4.10;3.53;;;49.20;40.10;;;;;;4943921;29;20380;-74
2022/07/24 14:00:34;;;;;;;5.27;3.90;;;48.90;39.80;;;;;;4943732;29;20042;-75
2022/07/24 14:03:00;;;;;;;4.53;3.67;;;49.30;39.50;;;;;;4943172;29;20055;-76
2022/07/24 14:05:26;;;;;;;4.10;3.70;;;49.10;39.90;;;;;;4943878;29;20263;-75
2022/07/24 14:07:53;;;;;;;5.60;3.97;;;49.80;40.60;;;;;;4943653;29;20039;-73
2022/07/24 14:10:20;;;;;;;3.60;3.30;;;50.70;39.30;;;;;;4957317;28;20035;-74
2022/07/24 14:12:46;;;;;;;4.40;3.53;;;51.40;38.70;;;;;;4963229;29;20105;-74
2022/07/24 14:15:13;;;;;;;;;;;51.90;38.40;;;;;;4963027;28;20051;-73
2022/07/24 14:17:39;;;;;;;4.07;3.67;;;52.10;38.10;;;;;;4962869;29;20043;-73
2022/07/24 14:20:07;;;;;;;4.00;3.60;;;52.20;37.60;;;;;;4980593;28;20046;-75
2022/07/24 14:22:37;;;;;;;4.50;3.38;;;52.00;38.50;;;;;;4983720;28;20316;-74
2022/07/24 14:25:04;;;;;;;4.30;3.40;;;51.90;37.80;;;;;;4983249;28;20046;-73
2022/07/24 14:27:30;;;;;;;4.10;3.70;;;51.90;37.80;;;;;;4983581;28;20058;-76
2022/07/24 14:29:56;;;;;;;4.05;3.63;;;52.00;37.70;;;;;;4982793;28;20038;-77
2022/07/24 14:32:22;;;;;;;4.35;3.38;;;52.10;37.20;;;;;;4982898;28;20039;-75
2022/07/24 14:34:48;;;;;;;4.18;3.22;;;51.90;37.40;;;;;;4965548;28;20127;-72
2022/07/24 14:37:14;;;;;;;4.45;3.20;;;51.90;37.10;;;;;;4972786;28;20035;-72
2022/07/24 14:39:40;;;;;;;;;;;52.00;37.60;;;;;;4964690;29;20098;-72
2022/07/24 14:42:06;;;;;;;3.50;3.20;;;52.10;37.00;;;;;;4950135;29;19914;-74
2022/07/24 14:44:32;;;;;;;3.55;3.10;;;51.80;37.00;;;;;;4944847;29;20321;-73
2022/07/24 14:47:00;;;;;;;3.85;3.42;;;51.90;36.90;;;;;;4943628;29;20048;-73
2022/07/24 14:49:26;;;;;;;3.70;3.33;;;52.50;37.00;;;;;;4944775;29;20254;-72
2022/07/24 14:51:52;;;;;;;;;;;51.80;37.70;;;;;;4944815;29;20036;-73
2022/07/24 14:54:18;;;;;;;3.63;3.13;;;52.50;37.50;;;;;;4944733;29;20219;-73
2022/07/24 14:56:44;;;;;;;5.30;3.30;;;52.60;37.20;;;;;;4944789;29;20090;-73
2022/07/24 14:59:10;;;;;;;3.65;3.35;;;52.00;36.90;;;;;;4943800;29;20055;-72
2022/07/24 15:01:36;;;;;;;3.83;3.40;;;52.80;36.60;;;;;;4943835;29;20152;-74
2022/07/24 15:04:02;;;;;;;4.32;3.67;;;53.80;37.20;;;;;;4944321;29;20046;-73
2022/07/24 15:06:28;;;;;;;4.63;4.00;;;54.30;36.60;;;;;;4943660;29;20217;-74
2022/07/24 15:08:54;;;;;;;;;;;54.70;36.40;;;;;;4947128;29;20062;-72
2022/07/24 15:11:21;;;;;;;3.72;3.33;;;54.20;36.10;;;;;;4946740;29;19907;-71
2022/07/24 15:13:53;;;;;;;3.78;3.10;;;52.30;36.50;;;;;;4963343;29;20255;-72
2022/07/24 15:16:19;;;;;;;4.00;3.28;;;52.50;36.20;;;;;;4963068;29;20043;-71
2022/07/24 15:18:45;;;;;;;4.18;3.78;;;50.90;36.80;;;;;;4963295;29;20019;-73
2022/07/24 15:21:11;;;;;;;4.32;3.20;;;50.00;38.10;;;;;;4964063;28;20043;-73
2022/07/24 15:23:37;;;;;;;3.70;3.30;;;51.40;37.30;;;;;;4967433;29;20035;-72
2022/07/24 15:26:03;;;;;;;4.10;3.70;;;52.60;37.00;;;;;;4965309;29;20039;-72
2022/07/24 15:28:29;;;;;;;4.57;3.47;;;52.80;37.10;;;;;;4966868;29;20116;-73
2022/07/24 15:30:55;;;;;;;3.88;3.47;;;52.40;36.90;;;;;;4965885;29;20038;-72
2022/07/24 15:33:21;;;;;;;4.00;3.60;;;52.90;37.20;;;;;;4966920;29;20202;-71
2022/07/24 15:35:47;;;;;;;3.92;3.53;;;52.60;37.10;;;;;;4967169;29;20031;-73
2022/07/24 15:38:13;;;;;;;4.75;3.53;;;52.30;37.10;;;;;;4966634;29;20313;-73
2022/07/24 15:40:40;;;;;;;4.00;3.70;;;52.30;36.90;;;;;;4964439;29;20035;-72
2022/07/24 15:43:06;;;;;;;4.78;3.55;;;52.30;36.70;;;;;;4946974;29;20066;-73
2022/07/24 15:45:32;;;;;;;4.63;3.47;;;52.20;36.90;;;;;;4946705;29;20051;-71
2022/07/24 15:47:58;;;;;;;4.05;3.70;;;52.20;36.80;;;;;;4947181;29;20091;-74
2022/07/24 15:50:24;;;;;;;3.97;3.53;;;52.50;36.50;;;;;;4947673;29;20032;-73
2022/07/24 15:52:49;;;;;;;4.10;3.60;;;52.10;36.50;;;;;;4947364;29;20261;-75
2022/07/24 15:55:15;;;;;;;5.00;3.40;;;51.30;36.80;;;;;;4947226;29;20036;-74
2022/07/24 15:57:41;;;;;;;3.63;3.33;;;52.30;37.20;;;;;;4947641;29;20030;-72
2022/07/24 16:00:08;;;;;;;3.70;3.40;;;52.40;36.10;;;;;;4946307;29;20431;-73
2022/07/24 16:02:36;;;;;;;4.25;3.30;;;52.70;36.80;;;;;;4946930;29;20119;-73
2022/07/24 16:05:03;;;;;;;4.05;3.45;;;53.10;36.40;;;;;;4946659;29;20043;-74
2022/07/24 16:07:30;;;;;;;4.18;3.50;;;52.30;36.40;;;;;;4947203;29;20066;-72
2022/07/24 16:09:57;;;;;;;4.22;3.65;;;51.50;36.60;;;;;;4956940;29;20213;-74
2022/07/24 16:12:23;;;;;;;4.82;3.90;;;51.10;36.60;;;;;;4966522;29;20066;-73
2022/07/24 16:14:49;;;;;;;3.75;3.33;;;50.30;37.00;;;;;;4966398;29;20046;-73
2022/07/24 16:17:15;;;;;;;8.93;4.78;;;50.50;37.00;;;;;;4965414;29;20043;-74
2022/07/24 16:19:41;;;;;;;3.90;3.60;;;51.80;36.60;;;;;;4966259;29;20356;-74
2022/07/24 16:22:07;;;;;;;4.10;3.50;;;52.20;36.40;;;;;;4965823;29;20027;-75
2022/07/24 16:24:33;;;;;;;4.13;3.30;;;51.10;36.20;;;;;;4948997;29;20035;-74
2022/07/24 16:26:59;;;;;;;4.43;3.33;;;50.90;36.50;;;;;;4965716;29;20046;-72
2022/07/24 16:29:25;;;;;;;;;;;51.60;37.10;;;;;;4966303;29;20031;-73
2022/07/24 16:31:50;;;;;;;;;;;51.80;36.10;;;;;;4947184;29;19910;-72
2022/07/24 16:34:16;;;;;;;3.77;3.37;;;51.30;36.70;;;;;;4963741;28;19966;-73
2022/07/24 16:36:42;;;;;;;3.38;3.08;;;51.60;36.80;;;;;;4965341;29;20043;-73
2022/07/24 16:39:08;;;;;;;5.20;3.70;;;51.50;36.60;;;;;;4965082;29;20039;-72
2022/07/24 16:41:34;;;;;;;3.92;3.53;;;49.90;36.60;;;;;;4965661;29;20035;-76
2022/07/24 16:44:00;;;;;;;5.87;3.60;;;49.30;37.20;;;;;;4965304;29;20198;-72
2022/07/24 16:46:26;;;;;;;5.20;3.60;;;49.30;38.50;;;;;;4964802;29;20336;-71
2022/07/24 16:48:53;;;;;;;4.43;3.50;;;49.90;37.10;;;;;;4965664;29;20465;-73
2022/07/24 16:51:19;;;;;;;5.38;4.07;;;48.40;37.30;;;;;;4965124;29;20335;-71
2022/07/24 16:53:45;;;;;;;5.43;4.20;;;47.00;38.80;;;;;;4965629;29;20305;-72
2022/07/24 16:56:11;;;;;;;4.57;4.03;;;45.30;39.30;;;;;;4965194;29;20046;-72
2022/07/24 16:58:38;;;;;;;4.63;4.07;;;43.20;40.80;;;;;;4965230;29;20023;-72
2022/07/24 17:01:05;;;;;;;4.80;4.35;;;42.10;41.80;;;;;;4964571;29;20066;-73
2022/07/24 17:03:32;;;;;;;5.95;4.30;;;40.80;43.10;;;;;;4964947;29;20047;-71
2022/07/24 17:05:57;;;;;;;5.35;4.82;;;39.90;43.70;;;;;;4964510;29;20229;-72
2022/07/24 17:08:23;;;;;;;6.22;4.68;;;39.40;44.50;;;;;;4965165;29;20102;-72
2022/07/24 17:10:49;;;;;;;5.75;4.82;;;38.50;45.70;;;;;;4964887;29;20201;-71
2022/07/24 17:13:15;;;;;;;5.28;4.70;;;38.30;45.60;;;;;;4964270;29;20058;-72
2022/07/24 17:15:42;;;;;;;6.30;5.15;;;37.90;46.10;;;;;;4964490;29;20039;-73
2022/07/24 17:18:08;;;;;;;5.70;5.15;;;37.60;46.50;;;;;;4964552;29;20038;-74
2022/07/24 17:20:36;;;;;;;6.18;4.72;;;37.50;47.20;;;;;;4965346;29;20027;-73
2022/07/24 17:23:04;;;;;;;6.03;5.43;;;37.80;47.00;;;;;;4964658;29;20027;-74
2022/07/24 17:25:31;;;;;;;;;;;38.20;46.90;;;;;;4965344;29;20034;-70
2022/07/24 17:27:57;;;;;;;6.72;5.38;;;39.20;46.50;;;;;;4964753;29;20097;-71
2022/07/24 17:30:23;;;;;;;5.70;5.10;;;40.40;45.30;;;;;;4964126;29;20042;-72
2022/07/24 17:32:50;;;;;;;6.82;5.13;;;41.10;44.50;;;;;;4964760;29;20027;-70
2022/07/24 17:35:16;;;;;;;6.60;5.20;;;41.70;43.70;;;;;;4964360;29;20037;-73
2022/07/24 17:37:42;;;;;;;6.53;5.45;;;42.40;43.60;;;;;;4964964;29;20035;-74
2022/07/24 17:40:09;;;;;;;6.50;5.13;;;42.90;43.30;;;;;;4963792;29;20363;-74
2022/07/24 17:42:34;;;;;;;5.43;4.93;;;42.70;43.20;;;;;;4964693;29;20035;-74
2022/07/24 17:45:00;;;;;;;5.80;4.70;;;42.10;43.20;;;;;;4963262;28;20098;-75
2022/07/24 17:47:26;;;;;;;7.05;5.22;;;42.30;43.50;;;;;;4964144;29;20142;-73
2022/07/24 17:49:52;;;;;;;5.63;5.03;;;42.20;43.40;;;;;;4964746;29;20102;-73
2022/07/24 17:52:17;;;;;;;5.38;4.88;;;42.40;43.40;;;;;;4964168;29;20237;-72
2022/07/24 17:54:43;;;;;;;6.05;4.90;;;42.10;43.50;;;;;;4964610;29;20058;-75